Terminal Aerodrome Forecast
Issued by NWS

Home | Current Version | Previous Version | Text Only | Print | Product List | Glossary On
Versions: 1 2 3 4 5 6 7 8 9 10 11 12 13 14 15 16 17 18 19
122
FTUS43 KBIS 121130
TAFDIK
TAF
KDIK 121130Z 1212/1312 01008KT P6SM SCT015 OVC025
      TEMPO 1212/1214 BKN015 OVC025
     FM121400 04008KT P6SM OVC035
     FM121900 08007KT P6SM BKN040
     FM122300 11009KT P6SM BKN070
     FM130400 13012KT P6SM OVC015
     FM130700 15012KT 5SM -SN BR OVC010=

USA.gov is the U.S. government's official web portal to all federal, state and local government web resources and services.